createdAt,value
2018-03-24T15:35:16.127Z,74.20
2018-03-24T15:36:06.296Z,76.60
2018-03-24T15:36:45.565Z,75.20
2018-03-24T15:37:17.227Z,76.60
2018-03-24T15:38:12.571Z,77.20
2018-03-24T15:38:44.202Z,78.70
2018-03-24T15:39:15.910Z,80.40
2018-03-24T15:39:47.499Z,80.10
2018-03-24T15:40:19.141Z,78.80
2018-03-24T15:40:50.775Z,76.30
2018-03-24T15:41:22.410Z,75.50
2018-03-24T15:41:54.199Z,76.50
2018-03-24T15:42:25.822Z,76.10
2018-03-24T15:43:21.941Z,78.20
2018-03-24T15:43:53.587Z,82.20
2018-03-24T15:44:25.216Z,78.80
2018-03-24T15:44:56.873Z,78.70
2018-03-24T15:45:28.522Z,79.40
2018-03-24T15:46:00.173Z,81.80
2018-03-24T15:46:31.817Z,78.80
2018-03-24T15:47:03.443Z,73.00
2018-03-24T15:47:35.096Z,75.40
2018-03-24T15:48:06.736Z,77.10
2018-03-24T15:48:38.368Z,77.00
2018-03-24T15:49:10.025Z,80.50
2018-03-24T15:49:41.657Z,78.50
2018-03-24T15:50:13.297Z,76.90
2018-03-24T15:50:44.947Z,74.80
2018-03-24T15:51:16.581Z,75.90
2018-03-24T15:51:48.220Z,76.40
2018-03-24T15:52:19.860Z,77.20
2018-03-24T15:52:51.527Z,70.20
2018-03-24T15:53:23.171Z,72.00
2018-03-24T15:53:54.837Z,74.20
2018-03-24T15:54:26.477Z,73.20
2018-03-24T15:54:58.098Z,73.80
2018-03-24T15:55:29.731Z,74.40
2018-03-24T15:56:01.391Z,73.20
2018-03-24T15:56:33.070Z,75.90
2018-03-24T15:57:04.699Z,76.20
2018-03-24T15:57:36.358Z,77.40
2018-03-24T15:58:07.972Z,78.60
2018-03-24T15:58:39.929Z,79.00
2018-03-24T15:59:11.553Z,79.00
2018-03-24T15:59:43.221Z,76.90
2018-03-24T16:00:14.873Z,80.10
2018-03-24T16:00:46.507Z,78.20
2018-03-24T16:01:18.196Z,78.60
2018-03-24T16:01:49.847Z,80.00
2018-03-24T16:02:21.469Z,78.90
2018-03-24T16:02:53.117Z,78.00
2018-03-24T16:03:24.732Z,75.80
2018-03-24T16:03:56.417Z,76.10
2018-03-24T16:04:28.050Z,78.90
2018-03-24T16:04:59.669Z,78.80
2018-03-24T16:05:31.312Z,79.30
2018-03-24T16:06:02.969Z,79.90
2018-03-24T16:06:34.595Z,79.80
2018-03-24T16:07:06.231Z,82.20
2018-03-24T16:07:37.866Z,81.60
2018-03-24T16:08:09.527Z,82.10
2018-03-24T16:08:41.209Z,80.80
2018-03-24T16:09:12.890Z,83.80
2018-03-24T16:09:44.473Z,86.80
2018-03-24T16:10:16.117Z,89.20
2018-03-24T16:10:47.741Z,89.00
2018-03-24T16:11:19.399Z,89.80
2018-03-24T16:11:51.071Z,90.00
2018-03-24T16:12:22.712Z,88.50
2018-03-24T16:12:54.329Z,89.80
2018-03-24T16:13:25.938Z,88.60
2018-03-24T16:13:57.551Z,88.20
2018-03-24T16:14:29.193Z,87.90
2018-03-24T16:15:00.870Z,89.20
2018-03-24T16:15:32.527Z,91.60
2018-03-24T16:16:04.211Z,93.30
2018-03-24T16:16:35.854Z,93.90
2018-03-24T16:17:07.485Z,93.20
2018-03-24T16:17:39.123Z,92.30
2018-03-24T16:18:10.772Z,92.30
2018-03-24T16:18:42.431Z,91.40
2018-03-24T16:19:14.063Z,92.50
2018-03-24T16:19:45.673Z,91.90
2018-03-24T16:20:17.339Z,91.10
2018-03-24T16:20:48.967Z,91.60
2018-03-24T16:21:20.647Z,90.90
2018-03-24T16:21:52.253Z,91.70
2018-03-24T16:22:23.882Z,91.60
2018-03-24T16:22:55.549Z,90.70
2018-03-24T16:23:27.208Z,93.10
2018-03-24T16:23:58.832Z,93.20
2018-03-24T16:24:30.486Z,94.30
2018-03-24T16:25:02.156Z,93.90
2018-03-24T16:25:33.773Z,95.80
2018-03-24T16:26:05.424Z,95.20
2018-03-24T16:26:37.053Z,96.20
2018-03-24T16:27:08.676Z,94.80
2018-03-24T16:27:40.329Z,95.00
2018-03-24T16:28:11.942Z,93.90
2018-03-24T16:28:43.584Z,94.80
2018-03-24T16:29:15.267Z,93.40
2018-03-24T16:29:46.994Z,93.50
2018-03-24T16:30:18.628Z,93.10
2018-03-24T16:30:50.277Z,92.20
2018-03-24T16:31:21.921Z,91.90
2018-03-24T16:31:53.567Z,93.10
2018-03-24T16:32:25.212Z,92.40
2018-03-24T16:32:56.863Z,92.30
2018-03-24T16:33:28.512Z,93.90
2018-03-24T16:34:00.154Z,95.50
2018-03-24T16:34:31.781Z,94.90
2018-03-24T16:35:03.465Z,94.50
2018-03-24T16:35:35.128Z,94.70
2018-03-24T16:36:06.774Z,93.70
2018-03-24T16:36:38.395Z,93.40
2018-03-24T16:37:10.041Z,93.90
2018-03-24T16:37:41.671Z,93.90
2018-03-24T16:38:13.288Z,93.60
2018-03-24T16:38:44.908Z,94.20
2018-03-24T16:39:16.534Z,94.20
2018-03-24T16:39:48.159Z,94.60
2018-03-24T16:40:19.780Z,93.90
2018-03-24T16:40:51.420Z,93.20
2018-03-24T16:41:23.041Z,92.60
2018-03-24T16:41:54.756Z,93.60
2018-03-24T16:42:26.377Z,94.90
2018-03-24T16:42:58.011Z,96.60
2018-03-24T16:43:29.652Z,98.00
2018-03-24T16:44:01.303Z,96.80
2018-03-24T16:44:32.942Z,97.20
2018-03-24T16:45:04.632Z,97.70
2018-03-24T16:45:36.279Z,96.80
2018-03-24T16:46:07.936Z,96.70
2018-03-24T16:46:39.553Z,97.30
2018-03-24T16:47:11.192Z,97.10
2018-03-24T16:47:42.817Z,96.60
2018-03-24T16:48:14.454Z,97.10
2018-03-24T16:48:46.113Z,98.30
2018-03-24T16:49:17.763Z,98.40
2018-03-24T16:49:49.426Z,98.30
2018-03-24T16:50:21.066Z,97.50
2018-03-24T16:50:52.731Z,98.80
2018-03-24T16:51:24.389Z,98.80
2018-03-24T16:51:56.047Z,99.90
2018-03-24T16:52:27.693Z,99.80
2018-03-24T16:52:59.343Z,99.90
2018-03-24T16:53:30.985Z,99.90
2018-03-24T16:54:02.646Z,99.60
2018-03-24T16:54:34.334Z,99.90
2018-03-24T16:55:05.963Z,99.90
2018-03-24T16:55:37.658Z,99.90
2018-03-24T16:56:09.303Z,99.00
2018-03-24T16:56:41.021Z,99.40
2018-03-24T16:57:12.659Z,99.90
2018-03-24T16:57:44.345Z,99.90
2018-03-24T16:58:16.020Z,99.90
2018-03-24T16:58:47.709Z,99.90
2018-03-24T16:59:19.386Z,99.90
2018-03-24T16:59:51.084Z,99.90
2018-03-24T17:00:24.265Z,99.90
2018-03-24T17:00:55.928Z,99.90
2018-03-24T17:01:27.561Z,99.90
2018-03-24T17:01:59.200Z,99.90
2018-03-24T17:02:30.841Z,99.90
2018-03-24T17:03:02.487Z,99.90
2018-03-24T17:03:34.105Z,99.90
2018-03-24T17:04:05.774Z,99.90
2018-03-24T17:04:37.481Z,99.90
2018-03-24T17:05:09.139Z,99.90
2018-03-24T17:05:40.818Z,99.90
2018-03-24T17:06:12.542Z,99.90
2018-03-24T17:06:44.196Z,99.90
2018-03-24T17:07:15.925Z,99.90
2018-03-24T17:07:47.679Z,99.90
2018-03-24T17:08:19.419Z,99.90
2018-03-24T17:08:51.138Z,99.90
2018-03-24T17:09:22.817Z,99.90
2018-03-24T17:09:54.503Z,99.90
2018-03-24T17:10:26.176Z,99.90
2018-03-24T17:10:57.870Z,99.90
2018-03-24T17:11:29.586Z,99.90
2018-03-24T17:12:01.291Z,99.90
2018-03-24T17:12:32.984Z,99.90
2018-03-24T17:13:04.735Z,99.90
2018-03-24T17:13:36.390Z,99.90
2018-03-24T17:14:08.078Z,99.90
2018-03-24T17:14:39.756Z,99.90
2018-03-24T17:15:11.483Z,99.90
2018-03-24T17:15:43.129Z,99.90
2018-03-24T17:16:14.790Z,99.90
2018-03-24T17:16:46.467Z,99.90
2018-03-24T17:17:18.114Z,99.90
2018-03-24T17:17:49.761Z,99.90
2018-03-24T17:18:21.429Z,99.90
2018-03-24T17:18:53.100Z,99.90
2018-03-24T17:19:24.820Z,99.90
2018-03-24T17:19:56.483Z,99.90
2018-03-24T17:20:28.124Z,99.90
2018-03-24T17:20:59.821Z,99.90
2018-03-24T17:21:31.508Z,99.90
2018-03-24T17:22:03.241Z,99.90
2018-03-24T17:22:34.896Z,99.90
2018-03-24T17:23:06.618Z,99.90
2018-03-24T17:23:38.301Z,99.90
2018-03-24T17:24:09.973Z,99.90
2018-03-24T17:24:41.676Z,99.90
2018-03-24T17:25:13.342Z,99.90
2018-03-24T17:25:45.054Z,99.90
2018-03-24T17:26:16.696Z,99.90
2018-03-24T17:26:48.332Z,99.90
2018-03-24T17:27:19.969Z,99.90
2018-03-24T17:27:51.761Z,99.90
2018-03-24T17:28:23.461Z,99.90
2018-03-24T17:28:55.240Z,99.90
2018-03-24T17:29:26.983Z,99.90
2018-03-24T17:29:58.668Z,99.90
2018-03-24T17:30:30.355Z,99.90
2018-03-24T17:31:02.113Z,99.90
2018-03-24T17:31:33.848Z,99.90
2018-03-24T17:32:05.568Z,99.90
2018-03-24T17:32:37.316Z,99.90
2018-03-24T17:33:09.096Z,99.90
2018-03-24T17:33:40.872Z,99.90
2018-03-24T17:34:12.693Z,99.90
2018-03-24T17:34:44.432Z,99.90
2018-03-24T17:35:16.148Z,99.90
2018-03-24T17:35:47.852Z,99.90
2018-03-24T17:36:19.696Z,99.90
2018-03-24T17:36:51.423Z,99.90
2018-03-24T17:37:23.120Z,99.90
2018-03-24T17:37:54.776Z,99.90
2018-03-24T17:38:26.537Z,99.90
2018-03-24T17:38:58.287Z,99.90
2018-03-24T17:39:30.043Z,99.90
2018-03-24T17:40:01.709Z,99.90
2018-03-24T17:40:33.452Z,99.90
2018-03-24T17:41:05.234Z,99.90
2018-03-24T17:41:36.927Z,99.90
2018-03-24T17:42:08.651Z,99.90
2018-03-24T17:42:40.465Z,99.90
2018-03-24T17:43:12.135Z,99.90
2018-03-24T17:43:43.805Z,99.90
2018-03-24T17:44:15.454Z,99.90
2018-03-24T17:44:47.105Z,99.90
2018-03-24T17:45:18.876Z,99.90
2018-03-24T17:45:50.584Z,99.90
2018-03-24T17:46:22.244Z,99.90
2018-03-24T17:46:53.938Z,99.90
2018-03-24T17:47:25.605Z,99.90
2018-03-24T17:47:57.299Z,99.90
2018-03-24T17:48:28.994Z,99.90
2018-03-24T17:49:00.694Z,99.90
2018-03-24T17:49:32.376Z,99.90
2018-03-24T17:50:04.070Z,99.90
2018-03-24T17:50:35.754Z,99.90
2018-03-24T17:51:07.400Z,99.90
2018-03-24T17:51:39.093Z,99.90
2018-03-24T17:52:10.764Z,99.90
2018-03-24T17:52:42.452Z,99.90
2018-03-24T17:53:14.166Z,99.90
2018-03-24T17:53:45.898Z,99.90
2018-03-24T17:54:17.661Z,99.90
2018-03-24T17:54:49.408Z,99.90
2018-03-24T17:55:21.194Z,99.90
2018-03-24T17:55:53.010Z,99.90
2018-03-24T17:56:24.720Z,99.90
2018-03-24T17:56:56.472Z,99.90
2018-03-24T17:57:28.216Z,99.90
2018-03-24T17:57:59.987Z,99.90
2018-03-24T17:58:31.775Z,99.90
2018-03-24T17:59:03.535Z,99.90
2018-03-24T17:59:35.256Z,99.90
2018-03-24T18:00:07.003Z,99.90
2018-03-24T18:00:38.786Z,99.90
2018-03-24T18:01:10.556Z,99.90
2018-03-24T18:01:42.476Z,99.90
2018-03-24T18:02:14.252Z,99.90
2018-03-24T18:02:46.080Z,99.90
2018-03-24T18:03:17.848Z,99.90
2018-03-24T18:03:49.675Z,99.90
2018-03-24T18:04:21.446Z,99.90
2018-03-24T18:04:53.178Z,99.90
2018-03-24T18:05:24.916Z,99.90
2018-03-24T18:05:56.738Z,99.90
2018-03-24T18:06:28.576Z,99.90
2018-03-24T18:07:00.380Z,99.90
2018-03-24T18:07:32.218Z,99.90
2018-03-24T18:08:03.974Z,99.90
2018-03-24T18:08:35.740Z,99.90
2018-03-24T18:09:07.429Z,99.90
2018-03-24T18:09:39.250Z,99.90
2018-03-24T18:10:11.072Z,99.90
2018-03-24T18:10:42.864Z,99.90
2018-03-24T18:11:14.577Z,99.90
2018-03-24T18:11:46.334Z,99.90
2018-03-24T18:12:18.056Z,99.90
2018-03-24T18:12:49.904Z,99.90
2018-03-24T18:13:21.656Z,99.90
2018-03-24T18:13:53.418Z,99.90
2018-03-24T18:14:25.202Z,99.90
2018-03-24T18:14:56.898Z,99.90
2018-03-24T18:15:28.660Z,99.90
2018-03-24T18:16:00.474Z,99.90
2018-03-24T18:16:32.242Z,99.90
2018-03-24T18:17:03.949Z,99.90
2018-03-24T18:17:35.656Z,99.90
2018-03-24T18:18:07.541Z,99.90
2018-03-24T18:18:39.337Z,99.90
2018-03-24T18:19:11.076Z,99.90
2018-03-24T18:19:42.816Z,99.90
2018-03-24T18:20:14.514Z,99.90
2018-03-24T18:20:46.194Z,99.90
2018-03-24T18:21:17.924Z,99.90
2018-03-24T18:21:49.668Z,99.90
2018-03-24T18:22:21.506Z,99.90
2018-03-24T18:22:53.254Z,99.90
2018-03-24T18:23:25.087Z,99.90
2018-03-24T18:23:56.868Z,99.90
2018-03-24T18:24:28.748Z,99.90
2018-03-24T18:25:00.580Z,99.90
2018-03-24T18:25:32.349Z,99.90
2018-03-24T18:26:04.126Z,99.90
2018-03-24T18:26:36.091Z,99.90
2018-03-24T18:27:08.148Z,99.90
2018-03-24T18:27:40.038Z,99.90
2018-03-24T18:28:12.062Z,99.90
2018-03-24T18:28:44.101Z,99.90
2018-03-24T18:29:16.178Z,99.90
2018-03-24T18:29:48.236Z,99.90
2018-03-24T18:30:20.320Z,99.90
2018-03-24T18:30:52.343Z,99.90
2018-03-24T18:31:24.429Z,99.90
2018-03-24T18:31:56.519Z,99.90
2018-03-24T18:32:28.585Z,99.90
2018-03-24T18:33:00.632Z,99.90
2018-03-24T18:33:32.750Z,99.90
2018-03-24T18:34:04.814Z,99.90
2018-03-24T18:34:36.808Z,99.90
2018-03-24T18:35:08.836Z,99.90
2018-03-24T18:35:40.854Z,99.90
2018-03-24T18:36:12.946Z,99.90
2018-03-24T18:36:45.053Z,99.90
2018-03-24T18:37:17.071Z,99.90
2018-03-24T18:37:49.138Z,99.90
2018-03-24T18:38:21.220Z,99.90
2018-03-24T18:38:53.256Z,99.90
2018-03-24T18:39:25.200Z,99.90
2018-03-24T18:39:57.220Z,99.90
2018-03-24T18:40:29.248Z,99.90
2018-03-24T18:41:01.126Z,99.90
2018-03-24T18:41:33.134Z,99.90
2018-03-24T18:42:05.068Z,99.90
2018-03-24T18:42:37.005Z,99.90
2018-03-24T18:43:08.996Z,99.90
2018-03-24T18:43:40.884Z,99.90
2018-03-24T18:44:12.804Z,99.90
2018-03-24T18:44:44.792Z,99.90
2018-03-24T18:45:16.634Z,99.90
2018-03-24T18:45:48.598Z,99.90
2018-03-24T18:46:20.690Z,99.90
2018-03-24T18:46:52.763Z,99.90
2018-03-24T18:47:24.738Z,99.90
2018-03-24T18:47:56.792Z,99.90
2018-03-24T18:48:28.836Z,99.90
2018-03-24T18:49:00.934Z,99.90
2018-03-24T18:49:32.984Z,99.90
2018-03-24T18:50:04.982Z,99.90
2018-03-24T18:50:36.856Z,99.90
2018-03-24T18:51:08.756Z,99.90
2018-03-24T18:51:40.817Z,99.90
2018-03-24T18:52:12.822Z,99.90
2018-03-24T18:52:44.822Z,99.90
2018-03-24T18:53:16.802Z,99.90
2018-03-24T18:53:48.692Z,99.90
2018-03-24T18:54:20.682Z,99.90
2018-03-24T18:54:52.674Z,99.90
2018-03-24T18:55:24.691Z,99.90
2018-03-24T18:55:56.847Z,99.90
2018-03-24T18:56:28.854Z,99.90
2018-03-24T18:57:00.840Z,99.90
2018-03-24T18:57:32.842Z,99.90
2018-03-24T18:58:04.918Z,99.90
2018-03-24T18:58:36.942Z,99.90
2018-03-24T18:59:08.970Z,99.90
2018-03-24T18:59:41.034Z,99.90
2018-03-24T19:00:13.120Z,99.90
2018-03-24T19:00:45.049Z,99.90
2018-03-24T19:01:17.198Z,99.90
2018-03-24T19:01:49.306Z,99.90
2018-03-24T19:02:21.374Z,99.90
2018-03-24T19:02:53.370Z,99.90
2018-03-24T19:03:25.486Z,99.90
2018-03-24T19:03:57.339Z,99.90
2018-03-24T19:04:29.220Z,99.90
2018-03-24T19:05:01.002Z,99.90
2018-03-24T19:05:32.714Z,99.90
2018-03-24T19:06:04.628Z,99.90
2018-03-24T19:06:36.664Z,99.90
2018-03-24T19:07:08.482Z,99.90
2018-03-24T19:07:40.346Z,99.90
2018-03-24T19:08:12.375Z,99.90
2018-03-24T19:08:44.314Z,99.90
2018-03-24T19:09:16.254Z,99.90
2018-03-24T19:09:48.107Z,99.90
2018-03-24T19:10:20.002Z,99.90
2018-03-24T19:10:52.292Z,99.90
2018-03-24T19:11:24.365Z,99.90
2018-03-24T19:11:56.366Z,99.90
2018-03-24T19:12:28.334Z,99.90
2018-03-24T19:13:00.417Z,99.90
2018-03-24T19:13:32.448Z,99.90
2018-03-24T19:14:04.242Z,99.90
2018-03-24T19:14:36.210Z,99.90
2018-03-24T19:15:08.188Z,99.90
2018-03-24T19:15:40.264Z,99.90
2018-03-24T19:16:12.242Z,99.90
2018-03-24T19:16:44.214Z,99.90
2018-03-24T19:17:16.242Z,99.90
2018-03-24T19:17:48.305Z,99.90
2018-03-24T19:18:20.378Z,99.90
2018-03-24T19:18:52.492Z,99.90
2018-03-24T19:19:24.551Z,99.90
2018-03-24T19:19:56.649Z,99.90
2018-03-24T19:20:28.626Z,99.90
2018-03-24T19:21:00.676Z,99.90
2018-03-24T19:21:32.770Z,99.90
2018-03-24T19:22:04.873Z,99.90
2018-03-24T19:22:36.999Z,99.90
2018-03-24T19:23:08.992Z,99.90
2018-03-24T19:23:41.044Z,99.90
2018-03-24T19:24:13.144Z,99.90
2018-03-24T19:24:45.184Z,99.90
2018-03-24T19:25:17.153Z,99.90
2018-03-24T19:25:49.173Z,99.90
2018-03-24T19:26:21.129Z,99.90
2018-03-24T19:26:53.096Z,99.90
2018-03-24T19:27:25.120Z,99.90
2018-03-24T19:27:57.145Z,99.90
2018-03-24T19:28:29.130Z,99.90
2018-03-24T19:29:01.221Z,99.90
2018-03-24T19:29:33.190Z,99.90
2018-03-24T19:30:05.275Z,99.90
2018-03-24T19:30:37.318Z,99.90
2018-03-24T19:31:09.307Z,99.90
2018-03-24T19:31:41.266Z,99.90
2018-03-24T19:32:13.268Z,99.90
2018-03-24T19:32:45.297Z,99.90
2018-03-24T19:33:17.468Z,99.90
2018-03-24T19:33:50.402Z,99.90
2018-03-24T19:34:22.475Z,99.90
2018-03-24T19:34:54.524Z,99.90
2018-03-24T19:35:26.625Z,99.90
2018-03-24T19:35:58.733Z,99.90
2018-03-24T19:36:30.735Z,99.90
2018-03-24T19:37:02.834Z,99.90
2018-03-24T19:37:35.054Z,99.90
2018-03-24T19:38:07.146Z,99.90
2018-03-24T19:38:39.187Z,99.90
2018-03-24T19:39:11.242Z,99.90
2018-03-24T19:39:43.274Z,99.90
2018-03-24T19:40:15.338Z,99.90
2018-03-24T19:40:47.413Z,99.90
2018-03-24T19:41:19.631Z,99.90
2018-03-24T19:41:51.690Z,99.90
2018-03-24T19:42:23.766Z,99.90
2018-03-24T19:42:55.826Z,99.90
2018-03-24T19:43:27.926Z,99.90
2018-03-24T19:44:00.008Z,99.90
2018-03-24T19:44:32.089Z,99.90
2018-03-24T19:45:04.158Z,99.90
2018-03-24T19:45:36.390Z,99.90
2018-03-24T19:46:08.546Z,99.90
2018-03-24T19:46:40.646Z,99.90
2018-03-24T19:47:12.725Z,99.90
2018-03-24T19:47:44.775Z,99.90
2018-03-24T19:48:16.850Z,99.90
2018-03-24T19:48:48.982Z,99.90
2018-03-24T19:49:21.034Z,99.90
2018-03-24T19:49:53.229Z,99.90
2018-03-24T19:50:25.294Z,99.90
2018-03-24T19:50:57.390Z,99.90
2018-03-24T19:51:29.447Z,99.90
2018-03-24T19:52:01.519Z,99.90
2018-03-24T19:52:33.661Z,99.90
2018-03-24T19:53:05.774Z,99.90
2018-03-24T19:53:37.844Z,99.90
2018-03-24T19:54:09.942Z,99.90
2018-03-24T19:54:42.044Z,99.90
2018-03-24T19:55:14.145Z,99.90
2018-03-24T19:55:46.266Z,99.90
2018-03-24T19:56:18.348Z,99.90
2018-03-24T19:56:50.421Z,99.90
2018-03-24T19:57:22.481Z,99.90
2018-03-24T19:57:54.524Z,99.90
2018-03-24T19:58:26.615Z,99.90
2018-03-24T19:58:58.673Z,99.90
2018-03-24T19:59:30.737Z,99.90
2018-03-24T20:00:02.979Z,99.90
2018-03-24T20:00:35.128Z,99.90
2018-03-24T20:01:07.210Z,99.90
2018-03-24T20:01:39.312Z,99.90
2018-03-24T20:02:11.352Z,99.90
2018-03-24T20:02:43.433Z,99.90
2018-03-24T20:03:15.536Z,99.90
2018-03-24T20:03:47.633Z,99.90
2018-03-24T20:04:19.709Z,99.90
2018-03-24T20:04:51.834Z,99.90
2018-03-24T20:05:23.965Z,99.90
2018-03-24T20:05:56.060Z,99.90
2018-03-24T20:06:28.178Z,99.90
2018-03-24T20:07:00.250Z,99.90
2018-03-24T20:07:32.300Z,99.90
2018-03-24T20:08:04.391Z,99.90
2018-03-24T20:08:36.451Z,99.90
2018-03-24T20:09:08.498Z,99.90
2018-03-24T20:09:40.585Z,99.90
2018-03-24T20:10:12.659Z,99.90
2018-03-24T20:10:44.787Z,99.90
2018-03-24T20:11:16.847Z,99.90
2018-03-24T20:11:48.913Z,99.90
2018-03-24T20:12:21.014Z,99.90
2018-03-24T20:12:53.077Z,99.90
2018-03-24T20:13:25.201Z,99.90
2018-03-24T20:13:57.320Z,99.90
2018-03-24T20:14:29.430Z,99.90
2018-03-24T20:15:01.526Z,99.90
2018-03-24T20:15:33.581Z,99.90
2018-03-24T20:16:05.669Z,99.90
2018-03-24T20:16:37.757Z,99.90
2018-03-24T20:17:09.830Z,99.90
2018-03-24T20:17:41.914Z,99.90
2018-03-24T20:18:13.988Z,99.90
2018-03-24T20:18:46.030Z,99.90
2018-03-24T20:19:23.123Z,99.90
2018-03-24T20:19:55.219Z,99.90
2018-03-24T20:20:27.294Z,99.90
2018-03-24T20:20:59.421Z,99.90
2018-03-24T20:21:31.528Z,99.90
2018-03-24T20:22:03.634Z,99.90
2018-03-24T20:22:35.745Z,99.90
2018-03-24T20:23:07.801Z,99.90
2018-03-24T20:23:39.897Z,99.90
2018-03-24T20:24:12.007Z,99.90
2018-03-24T20:24:44.105Z,99.90
2018-03-24T20:25:16.290Z,99.90
2018-03-24T20:25:48.353Z,99.90
2018-03-24T20:26:20.414Z,99.90
2018-03-24T20:26:52.541Z,99.90
2018-03-24T20:27:24.605Z,99.90
2018-03-24T20:27:56.679Z,99.90
2018-03-24T20:28:28.758Z,99.90
2018-03-24T20:29:00.854Z,99.90
2018-03-24T20:29:32.943Z,99.90
2018-03-24T20:30:06.079Z,99.90
2018-03-24T20:30:38.186Z,99.90
2018-03-24T20:31:10.290Z,99.90
2018-03-24T20:31:42.422Z,99.90
2018-03-24T20:32:14.493Z,99.90
2018-03-24T20:32:46.606Z,99.90
2018-03-24T20:33:18.741Z,99.90
2018-03-24T20:33:50.827Z,99.90
2018-03-24T20:34:22.904Z,99.90
2018-03-24T20:34:54.960Z,99.90
2018-03-24T20:35:27.044Z,99.90
2018-03-24T20:35:59.061Z,99.90
2018-03-24T20:36:31.144Z,99.90
2018-03-24T20:37:03.327Z,99.90
2018-03-24T20:37:35.527Z,99.90
2018-03-24T20:38:07.638Z,99.90
2018-03-24T20:38:39.727Z,99.90
2018-03-24T20:39:11.800Z,99.90
2018-03-24T20:39:44.077Z,99.90
2018-03-24T20:40:16.157Z,99.90
2018-03-24T20:40:48.248Z,99.90
2018-03-24T20:41:20.390Z,99.90
2018-03-24T20:41:52.524Z,99.90
2018-03-24T20:42:24.733Z,99.90
2018-03-24T20:42:56.803Z,99.90
2018-03-24T20:43:28.881Z,99.90
2018-03-24T20:44:00.969Z,99.90
2018-03-24T20:44:33.054Z,99.90
2018-03-24T20:45:05.222Z,99.90
2018-03-24T20:45:37.350Z,99.90
2018-03-24T20:46:09.413Z,99.90
2018-03-24T20:46:41.477Z,99.90
2018-03-24T20:47:13.575Z,99.90
2018-03-24T20:47:45.704Z,99.90
2018-03-24T20:48:17.744Z,99.90
2018-03-24T20:48:49.797Z,99.90
2018-03-24T20:49:21.890Z,99.90
2018-03-24T20:49:53.995Z,99.90
2018-03-24T20:50:26.096Z,99.90
2018-03-24T20:50:58.181Z,99.90
2018-03-24T20:51:30.281Z,99.90
2018-03-24T20:52:02.393Z,99.90
2018-03-24T20:52:34.510Z,99.90
2018-03-24T20:53:07.380Z,99.90
2018-03-24T20:53:39.485Z,99.90
2018-03-24T20:54:11.613Z,99.90
2018-03-24T20:54:43.697Z,99.90
2018-03-24T20:55:15.806Z,99.90
2018-03-24T20:55:47.897Z,99.90
2018-03-24T20:56:20.975Z,99.90
2018-03-24T20:56:53.075Z,99.90
2018-03-24T20:57:25.214Z,99.90
2018-03-24T20:57:57.352Z,99.90
2018-03-24T20:58:29.439Z,99.90
2018-03-24T20:59:01.544Z,99.90
2018-03-24T20:59:33.405Z,99.90
2018-03-24T21:00:05.225Z,99.90
2018-03-24T21:00:37.053Z,99.90
2018-03-24T21:01:08.695Z,99.90
2018-03-24T21:01:40.347Z,99.90
2018-03-24T21:02:12.066Z,99.90
2018-03-24T21:02:43.701Z,99.90
2018-03-24T21:03:15.343Z,99.90
2018-03-24T21:03:46.963Z,99.90
2018-03-24T21:04:18.623Z,99.90
2018-03-24T21:04:50.263Z,99.90
2018-03-24T21:05:21.901Z,99.90
2018-03-24T21:05:53.686Z,99.90
2018-03-24T21:06:25.598Z,99.90
2018-03-24T21:06:57.752Z,99.90
2018-03-24T21:07:29.489Z,99.90
2018-03-24T21:08:01.232Z,99.90
2018-03-24T21:08:33.125Z,99.90
2018-03-24T21:09:04.980Z,99.90
2018-03-24T21:09:37.184Z,99.90
2018-03-24T21:10:08.866Z,99.90
2018-03-24T21:10:40.695Z,99.90
2018-03-24T21:11:12.484Z,99.90
2018-03-24T21:11:44.189Z,99.90
2018-03-24T21:12:16.037Z,99.90
2018-03-24T21:12:47.845Z,99.90
2018-03-24T21:13:19.534Z,99.90
2018-03-24T21:13:51.314Z,99.90
2018-03-24T21:14:22.985Z,99.90
2018-03-24T21:14:54.780Z,99.90
2018-03-24T21:15:26.602Z,99.90
2018-03-24T21:15:58.557Z,99.90
2018-03-24T21:16:30.487Z,99.90
2018-03-24T21:17:02.525Z,99.90
2018-03-24T21:17:34.530Z,99.90
2018-03-24T21:18:06.443Z,99.90
2018-03-24T21:18:38.433Z,99.90
2018-03-24T21:19:10.282Z,99.90
2018-03-24T21:19:42.095Z,99.90
2018-03-24T21:20:14.001Z,99.90
2018-03-24T21:20:45.706Z,99.90
2018-03-24T21:21:17.440Z,99.90
2018-03-24T21:21:49.163Z,99.90
2018-03-24T21:22:20.853Z,99.90
2018-03-24T21:22:52.674Z,99.90
2018-03-24T21:23:24.583Z,99.90
2018-03-24T21:23:56.421Z,99.90
2018-03-24T21:24:28.361Z,99.90
2018-03-24T21:25:00.171Z,99.90
2018-03-24T21:25:32.108Z,99.90
2018-03-24T21:26:03.973Z,99.90
2018-03-24T21:26:35.839Z,99.90
2018-03-24T21:27:07.764Z,99.90
2018-03-24T21:27:39.749Z,99.90
2018-03-24T21:28:11.636Z,99.90
2018-03-24T21:28:43.353Z,99.90
2018-03-24T21:29:15.217Z,99.90
2018-03-24T21:29:47.085Z,99.90
2018-03-24T21:30:19.063Z,99.90
2018-03-24T21:30:51.021Z,99.90
2018-03-24T21:31:22.882Z,99.90
2018-03-24T21:31:54.791Z,99.90
2018-03-24T21:32:26.910Z,99.90
2018-03-24T21:32:58.885Z,99.90
2018-03-24T21:33:30.709Z,99.90
2018-03-24T21:34:02.597Z,99.90
2018-03-24T21:34:34.401Z,99.90
2018-03-24T21:35:06.145Z,99.90
2018-03-24T21:35:37.837Z,99.90
2018-03-24T21:36:09.655Z,99.90
2018-03-24T21:36:41.564Z,99.90
2018-03-24T21:37:13.263Z,99.90
2018-03-24T21:37:45.021Z,99.90
2018-03-24T21:38:16.725Z,99.90
2018-03-24T21:38:48.466Z,99.90
2018-03-24T21:39:20.275Z,99.90
2018-03-24T21:39:52.053Z,99.90
2018-03-24T21:40:23.815Z,99.90
2018-03-24T21:40:55.617Z,99.90
2018-03-24T21:41:27.343Z,99.90
2018-03-24T21:41:59.051Z,99.90
2018-03-24T21:42:30.754Z,99.90
2018-03-24T21:43:02.481Z,99.90
2018-03-24T21:43:34.203Z,99.90
2018-03-24T21:44:05.931Z,99.90
2018-03-24T21:44:37.747Z,99.90
2018-03-24T21:45:09.668Z,99.90
2018-03-24T21:45:41.575Z,99.90
2018-03-24T21:46:13.334Z,99.90
2018-03-24T21:46:45.025Z,99.90
2018-03-24T21:47:16.736Z,99.90
2018-03-24T21:47:48.433Z,99.90
2018-03-24T21:48:20.131Z,99.90
2018-03-24T21:48:52.019Z,99.90
2018-03-24T21:49:23.833Z,99.90
2018-03-24T21:49:55.601Z,99.90
2018-03-24T21:50:27.266Z,99.90
2018-03-24T21:50:59.023Z,99.90
2018-03-24T21:51:30.729Z,99.90
2018-03-24T21:52:02.541Z,99.90
2018-03-24T21:52:34.259Z,99.90
2018-03-24T21:53:05.935Z,99.90
2018-03-24T21:53:37.623Z,99.90
2018-03-24T21:54:09.265Z,99.90
2018-03-24T21:54:40.917Z,99.90
2018-03-24T21:55:12.527Z,99.90
2018-03-24T21:55:44.184Z,99.90
2018-03-24T21:56:15.849Z,99.90
2018-03-24T21:56:47.491Z,99.90
2018-03-24T21:57:19.129Z,99.90
2018-03-24T21:57:50.769Z,99.90
2018-03-24T21:58:22.443Z,99.90
2018-03-24T21:58:54.103Z,99.90
2018-03-24T21:59:25.739Z,99.90
2018-03-24T21:59:57.389Z,99.90
2018-03-24T22:00:29.031Z,99.90
2018-03-24T22:01:00.719Z,99.90
2018-03-24T22:01:32.385Z,99.90
2018-03-24T22:02:04.067Z,99.90
2018-03-24T22:02:35.713Z,99.90
2018-03-24T22:03:07.341Z,99.90
2018-03-24T22:03:39.042Z,99.90
2018-03-24T22:04:10.736Z,99.90
2018-03-24T22:04:42.365Z,99.90
2018-03-24T22:05:14.044Z,99.90
2018-03-24T22:05:45.685Z,99.90
2018-03-24T22:06:17.321Z,99.90
2018-03-24T22:06:48.965Z,99.90
2018-03-24T22:07:20.593Z,99.90
2018-03-24T22:07:52.249Z,99.90
2018-03-24T22:08:23.878Z,99.90
2018-03-24T22:08:55.530Z,99.90
2018-03-24T22:09:27.159Z,99.90
2018-03-24T22:09:58.785Z,99.90
2018-03-24T22:10:30.431Z,99.90
2018-03-24T22:11:02.091Z,99.90
2018-03-24T22:11:33.743Z,99.90
2018-03-24T22:12:05.407Z,99.90
2018-03-24T22:12:37.038Z,99.90
2018-03-24T22:13:08.657Z,99.90
2018-03-24T22:13:40.287Z,99.90
2018-03-24T22:14:11.933Z,99.90
2018-03-24T22:14:43.556Z,99.90
2018-03-24T22:15:15.187Z,99.90
2018-03-24T22:15:46.827Z,99.90
2018-03-24T22:16:18.459Z,99.90
2018-03-24T22:16:50.126Z,99.90
2018-03-24T22:17:21.797Z,99.90
2018-03-24T22:17:53.430Z,99.90
2018-03-24T22:18:25.077Z,99.90
2018-03-24T22:18:56.706Z,99.90
2018-03-24T22:19:28.325Z,99.90
2018-03-24T22:19:59.945Z,99.90
2018-03-24T22:20:31.591Z,99.90
2018-03-24T22:21:03.277Z,99.90
2018-03-24T22:21:34.940Z,99.90
2018-03-24T22:22:06.613Z,99.90
2018-03-24T22:22:38.232Z,99.90
2018-03-24T22:23:09.879Z,99.90
2018-03-24T22:23:41.513Z,99.90
2018-03-24T22:24:13.119Z,99.90
2018-03-24T22:24:44.765Z,99.90
2018-03-24T22:25:16.399Z,99.90
2018-03-24T22:25:48.063Z,99.90
2018-03-24T22:26:19.683Z,99.90